Time;durP1;ratioP1;P1;durP2;ratioP2;P2;SDS_P1;SDS_P2;PMS_P1;PMS_P2;Temp;Humidity;BMP_temperature;BMP_pressure;BME280_temperature;BME280_humidity;BME280_pressure;Samples;Min_cycle;Max_cycle;Signal;HPM_P1;HPM_P2
2023/09/29 00:00:16;;;;;;;22.65;5.63;;;;;;;;;;4981444;28;20067;-89
2023/09/29 00:02:42;;;;;;;18.58;4.93;;;;;;;;;;4983096;28;20046;-89
2023/09/29 00:05:09;;;;;;;17.77;4.95;;;15.80;99.90;;;;;;4988985;28;20840;-88
2023/09/29 00:07:37;;;;;;;21.83;5.30;;;;;;;;;;4985071;28;20092;-89
2023/09/29 00:10:03;;;;;;;20.45;5.85;;;;;;;;;;4996284;28;20046;-89
2023/09/29 00:12:29;;;;;;;17.55;4.63;;;;;;;;;;4993189;28;20068;-88
2023/09/29 00:14:55;;;;;;;23.17;5.45;;;15.80;99.90;;;;;;4993242;28;20045;-89
2023/09/29 00:17:21;;;;;;;23.27;5.70;;;;;;;;;;4995434;28;20062;-89
2023/09/29 00:19:47;;;;;;;17.40;5.07;;;;;;;;;;4995802;28;20049;-89
2023/09/29 00:22:13;;;;;;;17.35;5.20;;;;;;;;;;4979091;28;20041;-89
2023/09/29 00:24:39;;;;;;;15.40;4.45;;;;;;;;;;4985494;28;20049;-88
2023/09/29 00:27:05;;;;;;;17.73;4.45;;;;;;;;;;4986120;28;20483;-89
2023/09/29 00:29:31;;;;;;;19.05;4.95;;;;;;;;;;4998010;28;20057;-89
2023/09/29 00:31:57;;;;;;;16.70;5.07;;;;;;;;;;4985474;28;20045;-90
2023/09/29 00:34:23;;;;;;;17.73;5.13;;;;;;;;;;4994346;28;20505;-89
2023/09/29 00:36:51;;;;;;;16.83;4.43;;;;;;;;;;4991244;28;20045;-89
2023/09/29 00:39:18;;;;;;;15.75;5.18;;;;;;;;;;4976546;28;20049;-89
2023/09/29 00:41:44;;;;;;;16.20;4.93;;;;;;;;;;4983738;28;20489;-88
2023/09/29 00:44:10;;;;;;;17.65;4.75;;;;;;;;;;4981841;28;20052;-89
2023/09/29 00:46:37;;;;;;;12.55;4.03;;;;;;;;;;4981578;28;20081;-89
2023/09/29 00:49:04;;;;;;;19.80;5.03;;;;;;;;;;5011430;28;20037;-89
2023/09/29 00:51:31;;;;;;;20.92;4.55;;;;;;;;;;5011207;28;20049;-90
2023/09/29 00:53:57;;;;;;;19.20;5.22;;;15.60;99.90;;;;;;4995920;28;20048;-90
2023/09/29 00:56:23;;;;;;;15.82;4.85;;;16.00;99.90;;;;;;4988823;28;20042;-89
2023/09/29 00:58:50;;;;;;;22.65;5.38;;;;;;;;;;4985902;28;20073;-89
2023/09/29 01:01:16;;;;;;;14.98;4.82;;;;;;;;;;5000157;28;20530;-90
2023/09/29 01:03:42;;;;;;;16.75;5.30;;;;;;;;;;4984996;28;20053;-89
2023/09/29 01:06:08;;;;;;;19.42;5.07;;;;;;;;;;4983706;28;20041;-90
2023/09/29 01:08:34;;;;;;;18.20;4.78;;;;;;;;;;4990570;28;20100;-89
2023/09/29 01:11:00;;;;;;;19.80;5.00;;;;;;;;;;5000907;28;20050;-89
2023/09/29 01:13:26;;;;;;;15.65;5.10;;;;;;;;;;4977964;28;20038;-89
2023/09/29 01:15:54;;;;;;;18.30;4.90;;;;;;;;;;4978115;28;20045;-89
2023/09/29 01:18:20;;;;;;;17.00;4.50;;;;;;;;;;4975232;28;20428;-89
2023/09/29 01:20:46;;;;;;;18.13;4.82;;;;;;;;;;4982745;28;20052;-89
2023/09/29 01:23:12;;;;;;;25.25;5.82;;;;;;;;;;4994885;28;20052;-89
2023/09/29 01:25:38;;;;;;;19.67;5.30;;;;;;;;;;4982643;28;20050;-89
2023/09/29 01:28:05;;;;;;;14.23;4.68;;;16.00;99.90;;;;;;4989750;28;20045;-89
2023/09/29 01:30:31;;;;;;;17.27;4.57;;;;;;;;;;4991495;28;20396;-89
2023/09/29 01:32:57;;;;;;;17.33;4.63;;;;;;;;;;4979741;28;20046;-89
2023/09/29 01:35:23;;;;;;;17.65;4.95;;;;;;;;;;4994005;28;20052;-89
2023/09/29 01:37:50;;;;;;;22.27;5.03;;;;;;;;;;5009800;28;20037;-90
2023/09/29 01:40:16;;;;;;;17.08;5.07;;;;;;;;;;4974887;28;20074;-89
2023/09/29 01:42:43;;;;;;;18.52;5.28;;;15.70;99.90;;;;;;4980645;28;20129;-88
2023/09/29 01:45:11;;;;;;;20.75;5.88;;;15.50;99.90;;;;;;4970064;28;20465;-89
2023/09/29 01:47:43;;;;;;;20.27;4.63;;;15.90;99.90;;;;;;4972765;28;20067;-89
2023/09/29 01:50:10;;;;;;;15.63;4.28;;;15.90;99.90;;;;;;4994540;28;20064;-90
2023/09/29 01:52:37;;;;;;;13.45;4.72;;;;;;;;;;4994318;28;20059;-89
2023/09/29 01:55:14;;;;;;;15.27;4.13;;;16.10;99.90;;;;;;5007701;28;20680;-88
2023/09/29 01:57:40;;;;;;;15.65;4.93;;;;;;;;;;4975910;28;20041;-89
2023/09/29 02:00:10;;;;;;;15.10;4.38;;;;;;;;;;4978135;28;20077;-90
2023/09/29 02:02:39;;;;;;;21.30;4.82;;;16.00;99.90;;;;;;4978031;28;20598;-89
2023/09/29 02:05:07;;;;;;;16.33;4.38;;;;;;;;;;5006223;28;20080;-89
2023/09/29 02:07:33;;;;;;;18.30;5.57;;;;;;;;;;4993745;28;20382;-88
2023/09/29 02:09:59;;;;;;;14.30;5.20;;;;;;;;;;4984594;28;20041;-89
2023/09/29 02:12:25;;;;;;;16.83;5.57;;;;;;;;;;4993789;28;20095;-89
2023/09/29 02:14:51;;;;;;;21.10;4.70;;;;;;;;;;4979800;28;20038;-89
2023/09/29 02:17:18;;;;;;;17.35;4.90;;;;;;;;;;4993270;28;20084;-88
2023/09/29 02:19:44;;;;;;;19.33;5.75;;;;;;;;;;4983795;28;20049;-89
2023/09/29 02:22:10;;;;;;;19.33;5.10;;;;;;;;;;4990648;28;20046;-90
2023/09/29 02:24:36;;;;;;;14.55;4.65;;;;;;;;;;5009032;28;20060;-88
2023/09/29 02:27:02;;;;;;;16.58;4.28;;;;;;;;;;4982295;28;20050;-89
2023/09/29 02:29:28;;;;;;;13.25;4.40;;;;;;;;;;4987151;28;20056;-90
2023/09/29 02:31:57;;;;;;;18.20;5.13;;;14.90;99.90;;;;;;4985461;28;20107;-89
2023/09/29 02:34:24;;;;;;;17.00;4.55;;;16.10;99.90;;;;;;4965018;28;20583;-88
2023/09/29 02:36:52;;;;;;;17.08;5.03;;;;;;;;;;4986663;28;20249;-89
2023/09/29 02:39:18;;;;;;;19.17;5.05;;;;;;;;;;4987742;28;20046;-89
2023/09/29 02:41:44;;;;;;;17.05;5.43;;;;;;;;;;4985688;28;20049;-88
2023/09/29 02:44:10;;;;;;;12.98;5.05;;;;;;;;;;4984459;28;20053;-89
2023/09/29 02:46:36;;;;;;;15.88;5.18;;;;;;;;;;5006657;28;20610;-90
2023/09/29 02:49:03;;;;;;;19.65;5.90;;;;;;;;;;4986350;28;20084;-89
2023/09/29 02:51:29;;;;;;;16.33;5.63;;;;;;;;;;4987987;28;20041;-89
2023/09/29 02:53:55;;;;;;;19.02;5.20;;;;;;;;;;4985248;28;20045;-89
2023/09/29 02:56:23;;;;;;;24.52;5.13;;;;;;;;;;5004510;28;20033;-88
2023/09/29 02:58:52;;;;;;;16.70;4.93;;;;;;;;;;5007439;28;20528;-89
2023/09/29 03:01:19;;;;;;;15.68;5.00;;;;;;;;;;4977508;28;20069;-89
2023/09/29 03:03:45;;;;;;;12.18;3.83;;;;;;;;;;4982993;28;20042;-90
2023/09/29 03:06:20;;;;;;;19.50;5.07;;;16.30;99.90;;;;;;4967519;28;20766;-88
2023/09/29 03:08:56;;;;;;;;;;;16.30;99.90;;;;;;4997634;28;20042;-88
2023/09/29 03:11:21;;;;;;;;;;;16.20;99.90;;;;;;4986963;28;20638;-90
2023/09/29 03:13:48;;;;;;;12.70;4.32;;;16.10;99.90;;;;;;4993094;28;19925;-90
2023/09/29 03:16:14;;;;;;;14.40;4.88;;;;;;;;;;4992981;28;20060;-89
2023/09/29 03:18:40;;;;;;;12.32;4.15;;;;;;;;;;4979520;28;20985;-89
2023/09/29 03:21:07;;;;;;;20.10;5.45;;;;;;;;;;4986312;28;20136;-90
2023/09/29 03:23:39;;;;;;;21.60;5.22;;;16.20;99.90;;;;;;4980392;28;20041;-89
2023/09/29 03:26:05;;;;;;;11.75;3.92;;;;;;;;;;4999768;28;20041;-89
2023/09/29 03:28:31;;;;;;;17.48;4.72;;;16.40;99.90;;;;;;4984287;28;20504;-89
2023/09/29 03:31:01;;;;;;;18.20;5.55;;;;;;;;;;4976183;28;20088;-88
2023/09/29 03:33:27;;;;;;;12.13;4.45;;;;;;;;;;4981663;28;20052;-89
2023/09/29 03:35:55;;;;;;;16.35;5.45;;;16.40;99.90;;;;;;4985571;28;20046;-88
2023/09/29 03:38:21;;;;;;;19.77;4.35;;;;;;;;;;4986888;28;20045;-89
2023/09/29 03:40:50;;;;;;;17.05;5.47;;;16.40;99.90;;;;;;4984041;28;20136;-89
2023/09/29 03:43:16;;;;;;;19.23;5.05;;;;;;;;;;4993286;28;20045;-88
2023/09/29 03:45:42;;;;;;;11.85;4.95;;;;;;;;;;4996033;28;20485;-89
2023/09/29 03:48:09;;;;;;;15.57;5.57;;;;;;;;;;5007686;28;20045;-89
2023/09/29 03:50:35;;;;;;;16.88;4.95;;;;;;;;;;4979569;28;20497;-89
2023/09/29 03:53:01;;;;;;;14.25;4.28;;;;;;;;;;4976907;28;20049;-89
2023/09/29 03:55:29;;;;;;;14.70;4.82;;;;;;;;;;4989574;28;20133;-89
2023/09/29 03:57:55;;;;;;;18.83;4.75;;;;;;;;;;4993654;28;20121;-88
2023/09/29 04:00:21;;;;;;;19.73;5.20;;;16.70;99.90;;;;;;5012376;28;20128;-89
2023/09/29 04:02:51;;;;;;;21.15;5.10;;;;;;;;;;4984294;28;20045;-88
2023/09/29 04:05:17;;;;;;;20.60;5.13;;;16.70;99.90;;;;;;4996800;28;20084;-89
2023/09/29 04:07:44;;;;;;;15.82;4.78;;;;;;;;;;4995240;28;20128;-89
2023/09/29 04:10:11;;;;;;;16.25;4.47;;;16.60;99.90;;;;;;4988607;28;20052;-88
2023/09/29 04:12:42;;;;;;;12.43;4.75;;;16.60;99.90;;;;;;4993925;28;20088;-89
2023/09/29 04:15:08;;;;;;;18.13;4.90;;;16.60;99.90;;;;;;4997243;28;20045;-90
2023/09/29 04:17:38;;;;;;;13.38;5.40;;;16.70;99.90;;;;;;5008953;28;20159;-90
2023/09/29 04:20:05;;;;;;;17.95;4.72;;;16.90;99.90;;;;;;4984497;28;20425;-88
2023/09/29 04:22:32;;;;;;;17.92;4.22;;;;;;;;;;4976680;28;20046;-89
2023/09/29 04:24:58;;;;;;;16.00;5.18;;;;;;;;;;4979949;28;20119;-89
2023/09/29 04:27:24;;;;;;;19.67;4.97;;;;;;;;;;4988853;28;20081;-89
2023/09/29 04:29:50;;;;;;;13.10;4.57;;;;;;;;;;4981935;28;20139;-89
2023/09/29 04:32:17;;;;;;;13.90;4.55;;;;;;;;;;5001363;28;20129;-88
2023/09/29 04:34:43;;;;;;;22.85;5.50;;;;;;;;;;4988444;28;20096;-89
2023/09/29 04:37:09;;;;;;;20.42;5.07;;;;;;;;;;4979978;28;20041;-89
2023/09/29 04:39:35;;;;;;;13.40;4.43;;;;;;;;;;4992581;28;20088;-88
2023/09/29 04:42:04;;;;;;;15.70;5.18;;;16.80;99.90;;;;;;4989472;28;20181;-89
2023/09/29 04:44:30;;;;;;;15.70;5.28;;;;;;;;;;4994651;28;20045;-89
2023/09/29 04:46:56;;;;;;;11.32;3.90;;;;;;;;;;4997879;28;20041;-89
2023/09/29 04:49:22;;;;;;;15.82;6.10;;;16.80;99.90;;;;;;4982636;28;20108;-89
2023/09/29 04:51:48;;;;;;;14.63;4.93;;;;;;;;;;4996202;28;20043;-89
2023/09/29 04:54:14;;;;;;;19.98;6.75;;;;;;;;;;4995481;28;20408;-89
2023/09/29 04:56:40;;;;;;;22.83;6.32;;;;;;;;;;4994880;28;20041;-89
2023/09/29 04:59:06;;;;;;;11.60;4.68;;;;;;;;;;4993508;28;20137;-89
2023/09/29 05:01:32;;;;;;;16.08;5.00;;;;;;;;;;4989614;28;20061;-89
2023/09/29 05:03:58;;;;;;;14.07;5.43;;;;;;;;;;4986370;28;20042;-89
2023/09/29 05:06:25;;;;;;;12.68;4.85;;;;;;;;;;4989516;28;20075;-88
2023/09/29 05:08:51;;;;;;;13.65;5.05;;;16.80;99.90;;;;;;4982502;28;20049;-89
2023/09/29 05:11:25;;;;;;;15.30;4.80;;;16.80;99.90;;;;;;4984416;28;20217;-89
2023/09/29 05:13:51;;;;;;;15.30;5.88;;;16.90;99.90;;;;;;4979418;28;20041;-88
2023/09/29 05:16:17;;;;;;;12.85;5.18;;;;;;;;;;4981074;28;20397;-90
2023/09/29 05:18:44;;;;;;;17.35;4.95;;;16.80;99.90;;;;;;4990919;28;20556;-90
2023/09/29 05:21:11;;;;;;;14.82;5.00;;;16.90;99.90;;;;;;4987508;28;20989;-88
2023/09/29 05:23:37;;;;;;;16.55;5.35;;;;;;;;;;4975658;28;20092;-90
2023/09/29 05:26:05;;;;;;;13.43;5.65;;;;;;;;;;4988975;28;20583;-89
2023/09/29 05:28:31;;;;;;;14.70;5.25;;;;;;;;;;4989370;28;20051;-89
2023/09/29 05:30:58;;;;;;;13.68;5.85;;;;;;;;;;4997107;28;20298;-89
2023/09/29 05:33:23;;;;;;;15.43;5.88;;;;;;;;;;4986012;28;20116;-89
2023/09/29 05:35:50;;;;;;;16.40;5.65;;;;;;;;;;4989441;28;20104;-89
2023/09/29 05:38:16;;;;;;;19.08;5.82;;;;;;;;;;4980636;28;20045;-89
2023/09/29 05:40:43;;;;;;;16.85;6.13;;;;;;;;;;4986803;28;20084;-89
2023/09/29 05:43:10;;;;;;;17.17;5.78;;;16.90;99.90;;;;;;4993924;28;20056;-88
2023/09/29 05:45:39;;;;;;;11.70;5.72;;;16.60;99.90;;;;;;4993868;28;20037;-89
2023/09/29 05:48:09;;;;;;;14.98;5.35;;;16.60;99.90;;;;;;5004180;28;20038;-89
2023/09/29 05:50:38;;;;;;;16.80;6.03;;;;;;;;;;4992741;28;20041;-88
2023/09/29 05:53:05;;;;;;;10.43;4.30;;;;;;;;;;4987777;28;20567;-88
2023/09/29 05:55:31;;;;;;;14.35;5.43;;;;;;;;;;4960588;28;20081;-87
2023/09/29 05:57:57;;;;;;;14.50;4.55;;;;;;;;;;4996196;28;20045;-87
2023/09/29 06:00:24;;;;;;;16.83;5.85;;;16.80;99.90;;;;;;4988824;28;20103;-88
2023/09/29 06:02:50;;;;;;;10.75;4.25;;;;;;;;;;4999796;28;20048;-88
2023/09/29 06:05:17;;;;;;;13.52;5.00;;;;;;;;;;4990741;28;20041;-88
2023/09/29 06:07:43;;;;;;;13.77;4.38;;;;;;;;;;5001449;28;20069;-87
2023/09/29 06:10:11;;;;;;;13.68;4.95;;;16.70;99.90;;;;;;4977691;28;20073;-90
2023/09/29 06:12:37;;;;;;;14.00;4.78;;;;;;;;;;4977137;28;20442;-89
2023/09/29 06:15:05;;;;;;;11.43;4.22;;;16.80;99.90;;;;;;4976190;28;20088;-90
2023/09/29 06:17:31;;;;;;;8.55;3.97;;;;;;;;;;4974825;28;20184;-89
2023/09/29 06:19:57;;;;;;;14.70;4.53;;;;;;;;;;4991537;28;20574;-91
2023/09/29 06:22:23;;;;;;;17.05;4.65;;;;;;;;;;4984506;28;20050;-90
2023/09/29 06:24:49;;;;;;;10.63;4.25;;;;;;;;;;4979840;28;20041;-90
2023/09/29 06:27:15;;;;;;;9.35;4.05;;;;;;;;;;4984685;28;20084;-90
2023/09/29 06:29:46;;;;;;;9.95;3.72;;;;;;;;;;4981708;28;20077;-89
2023/09/29 06:32:13;;;;;;;12.60;4.10;;;;;;;;;;4996089;28;20046;-91
2023/09/29 06:34:39;;;;;;;11.25;4.00;;;;;;;;;;4978885;28;20498;-90
2023/09/29 06:37:05;;;;;;;13.48;4.57;;;;;;;;;;4976043;28;20076;-90
2023/09/29 06:39:31;;;;;;;7.88;4.15;;;;;;;;;;4976238;28;20050;-90
2023/09/29 06:41:57;;;;;;;12.48;4.28;;;;;;;;;;4982818;28;20049;-92
2023/09/29 06:44:23;;;;;;;13.40;4.80;;;;;;;;;;4988775;28;20049;-91
2023/09/29 06:46:49;;;;;;;10.10;4.25;;;;;;;;;;4992770;28;20471;-91
2023/09/29 06:49:15;;;;;;;10.95;4.43;;;;;;;;;;4975910;28;20402;-91
2023/09/29 06:51:41;;;;;;;11.65;4.80;;;;;;;;;;4976623;28;20049;-90
2023/09/29 06:54:14;;;;;;;14.02;4.57;;;;;;;;;;4983074;28;20443;-90
2023/09/29 06:56:40;;;;;;;11.80;5.18;;;;;;;;;;4993288;28;20042;-91
2023/09/29 06:59:06;;;;;;;7.95;4.13;;;;;;;;;;4975416;28;20081;-90
2023/09/29 07:01:32;;;;;;;10.43;4.85;;;;;;;;;;4975661;28;20546;-90
2023/09/29 07:03:58;;;;;;;10.40;4.53;;;;;;;;;;4975027;28;20055;-90
2023/09/29 07:06:25;;;;;;;11.80;4.15;;;;;;;;;;4974887;28;20046;-90
2023/09/29 07:08:52;;;;;;;11.27;4.03;;;;;;;;;;4975369;28;20519;-90
2023/09/29 07:11:18;;;;;;;10.55;4.40;;;17.40;99.90;;;;;;4975571;28;20042;-91
2023/09/29 07:13:44;;;;;;;8.30;4.32;;;;;;;;;;4975189;28;20042;-90
2023/09/29 07:16:10;;;;;;;8.63;4.43;;;;;;;;;;4988052;28;20103;-90
2023/09/29 07:18:36;;;;;;;11.40;4.30;;;;;;;;;;4984965;28;20607;-90
2023/09/29 07:21:02;;;;;;;8.30;4.38;;;;;;;;;;4975777;28;20049;-90
2023/09/29 07:23:30;;;;;;;14.52;5.07;;;;;;;;;;4988396;28;20492;-91
2023/09/29 07:25:56;;;;;;;7.82;4.40;;;;;;;;;;4987901;28;20172;-90
2023/09/29 07:28:22;;;;;;;8.55;3.88;;;;;;;;;;4988273;28;20804;-92
2023/09/29 07:30:50;;;;;;;8.50;4.10;;;;;;;;;;4975843;28;20099;-90
2023/09/29 07:33:16;;;;;;;10.98;3.50;;;;;;;;;;4976737;28;20045;-90
2023/09/29 07:35:46;;;;;;;7.57;3.65;;;;;;;;;;4986772;28;20603;-90
2023/09/29 07:38:12;;;;;;;12.85;4.03;;;;;;;;;;4992818;28;20522;-90
2023/09/29 07:40:38;;;;;;;9.40;3.88;;;;;;;;;;4975457;28;20046;-90
2023/09/29 07:43:05;;;;;;;7.75;3.80;;;;;;;;;;4985078;28;20050;-92
2023/09/29 07:45:32;;;;;;;6.22;3.58;;;18.70;99.90;;;;;;4975368;28;20050;-91
2023/09/29 07:47:58;;;;;;;8.30;3.10;;;;;;;;;;4984644;28;20042;-91
2023/09/29 07:50:25;;;;;;;5.20;2.70;;;;;;;;;;4977954;28;20048;-88
2023/09/29 07:52:51;;;;;;;7.57;3.13;;;;;;;;;;4989899;28;20482;-90
2023/09/29 07:55:17;;;;;;;7.60;3.22;;;;;;;;;;4986818;28;20069;-90
2023/09/29 07:57:43;;;;;;;5.35;2.90;;;;;;;;;;4999037;28;20045;-90
2023/09/29 08:00:10;;;;;;;6.80;3.13;;;;;;;;;;4983775;28;20046;-91
2023/09/29 08:02:36;;;;;;;4.75;2.90;;;;;;;;;;4988826;28;20056;-89
2023/09/29 08:05:03;;;;;;;5.68;2.50;;;;;;;;;;4980041;28;20050;-89
2023/09/29 08:07:29;;;;;;;4.57;2.90;;;;;;;;;;4973617;28;20081;-90
2023/09/29 08:09:55;;;;;;;7.82;3.47;;;;;;;;;;4996291;28;20577;-90
2023/09/29 08:12:21;;;;;;;7.47;2.90;;;;;;;;;;4975050;28;20128;-90
2023/09/29 08:14:47;;;;;;;7.70;3.00;;;;;;;;;;4978613;28;20204;-89
2023/09/29 08:17:13;;;;;;;6.20;2.70;;;19.50;99.90;;;;;;4973790;28;20057;-89
2023/09/29 08:19:42;;;;;;;8.75;2.83;;;;;;;;;;4995184;28;20497;-89
2023/09/29 08:22:08;;;;;;;9.40;3.28;;;;;;;;;;4989574;28;20060;-89
2023/09/29 08:24:34;;;;;;;6.50;2.55;;;;;;;;;;4980588;28;20568;-89
2023/09/29 08:27:00;;;;;;;6.28;2.58;;;;;;;;;;4978577;28;20053;-90
2023/09/29 08:29:26;;;;;;;8.50;3.22;;;;;;;;;;4984926;28;20055;-90
2023/09/29 08:32:00;;;;;;;7.30;2.92;;;19.80;99.90;;;;;;4976543;28;20409;-90
2023/09/29 08:34:30;;;;;;;10.07;3.33;;;;;;;;;;4980832;28;20179;-88
2023/09/29 08:36:56;;;;;;;8.57;2.70;;;;;;;;;;4981429;28;20046;-89
2023/09/29 08:39:22;;;;;;;5.43;2.58;;;;;;;;;;4986284;28;20098;-89
2023/09/29 08:42:10;;;;;;;7.20;2.40;;;19.90;99.90;;;;;;5001576;28;20046;-89
2023/09/29 08:44:36;;;;;;;5.63;2.53;;;19.70;99.90;;;;;;4990819;28;20537;-89
2023/09/29 08:47:02;;;;;;;5.40;2.42;;;;;;;;;;4976181;28;20045;-89
2023/09/29 08:49:29;;;;;;;5.53;2.67;;;19.90;99.90;;;;;;4979565;28;20045;-89
2023/09/29 08:51:56;;;;;;;6.22;2.30;;;20.00;99.90;;;;;;4979703;28;20632;-89
2023/09/29 08:54:23;;;;;;;5.43;2.00;;;;;;;;;;4979306;28;20045;-89
2023/09/29 08:56:49;;;;;;;7.50;3.25;;;20.60;99.90;;;;;;4981788;28;20559;-89
2023/09/29 08:59:15;;;;;;;7.13;2.42;;;;;;;;;;4973677;28;20053;-89
2023/09/29 09:01:41;;;;;;;5.32;2.70;;;22.50;99.90;;;;;;4978761;28;20128;-89
2023/09/29 09:04:07;;;;;;;6.70;2.42;;;21.00;99.90;;;;;;4977151;28;20135;-89
2023/09/29 09:06:32;;;;;;;8.88;3.17;;;21.50;99.90;;;;;;4983433;28;20100;-89
2023/09/29 09:08:58;;;;;;;4.05;2.38;;;21.10;99.90;;;;;;4995017;28;20037;-89
2023/09/29 09:11:24;;;;;;;12.68;2.78;;;21.30;99.90;;;;;;5002647;28;20756;-89
2023/09/29 09:14:01;;;;;;;6.35;2.85;;;21.00;99.90;;;;;;5001873;28;20374;-89
2023/09/29 09:16:28;;;;;;;14.20;3.65;;;;;;;;;;4981329;28;20116;-89
2023/09/29 09:18:54;;;;;;;10.13;3.00;;;;;;;;;;4975348;28;20043;-89
2023/09/29 09:21:30;;;;;;;6.10;2.83;;;20.60;99.90;;;;;;4989729;28;20093;-89
2023/09/29 09:23:56;;;;;;;7.10;3.13;;;;;;;;;;4990899;28;20089;-89
2023/09/29 09:26:22;;;;;;;7.70;3.10;;;20.40;99.90;;;;;;4989285;28;20459;-88
2023/09/29 09:28:47;;;;;;;7.68;2.42;;;20.40;99.90;;;;;;4980661;28;20065;-89
2023/09/29 09:31:13;;;;;;;9.88;3.17;;;;;;;;;;4991598;28;20049;-88
2023/09/29 09:33:39;;;;;;;5.55;2.60;;;;;;;;;;4960422;28;20043;-89
2023/09/29 09:36:09;;;;;;;6.85;2.40;;;20.60;99.90;;;;;;4966384;28;20496;-89
2023/09/29 09:38:35;;;;;;;5.38;2.67;;;20.60;99.90;;;;;;4987417;28;20047;-89
2023/09/29 09:41:01;;;;;;;6.97;2.92;;;21.90;99.90;;;;;;4984156;28;20148;-89
2023/09/29 09:43:29;;;;;;;5.18;2.47;;;22.60;99.90;;;;;;5004410;28;20125;-90
2023/09/29 09:46:03;;;;;;;8.07;2.50;;;22.20;99.90;;;;;;4995106;28;20816;-88
2023/09/29 09:48:50;;;;;;;4.03;2.70;;;22.60;99.90;;;;;;4970959;28;20042;-89
2023/09/29 09:51:29;;;;;;;11.48;3.30;;;22.80;99.90;;;;;;4958920;28;20054;-89
2023/09/29 09:54:00;;;;;;;6.65;2.83;;;24.00;99.90;;;;;;4981853;28;20159;-89
2023/09/29 09:56:30;;;;;;;5.30;2.47;;;21.50;99.90;;;;;;5004219;28;20054;-88
2023/09/29 09:58:57;;;;;;;9.07;2.50;;;21.30;99.90;;;;;;4985898;28;20042;-89
2023/09/29 10:01:23;;;;;;;6.55;2.65;;;20.80;99.90;;;;;;4982327;28;20506;-90
2023/09/29 10:03:50;;;;;;;5.97;2.45;;;21.10;99.90;;;;;;4974404;28;20054;-88
2023/09/29 10:06:16;;;;;;;9.15;2.72;;;21.00;99.90;;;;;;4994137;28;20525;-89
2023/09/29 10:08:44;;;;;;;4.75;2.85;;;20.60;99.90;;;;;;4984033;28;20042;-89
2023/09/29 10:11:14;;;;;;;10.25;2.97;;;20.60;99.90;;;;;;5004874;28;20041;-88
2023/09/29 10:13:44;;;;;;;7.75;2.92;;;20.40;99.90;;;;;;4971342;28;20046;-88
2023/09/29 10:16:21;;;;;;;5.85;2.75;;;20.40;99.90;;;;;;4990223;28;20050;-89
2023/09/29 10:19:05;;;;;;;9.48;2.63;;;20.40;99.90;;;;;;5005731;28;20129;-89
2023/09/29 10:21:55;;;;;;;10.55;3.55;;;20.30;99.90;;;;;;4986317;28;20461;-89
2023/09/29 10:24:26;;;;;;;7.40;3.15;;;20.10;99.90;;;;;;4981348;28;20052;-88
2023/09/29 10:26:51;;;;;;;7.57;2.97;;;20.20;99.90;;;;;;4975117;28;20050;-89
2023/09/29 10:29:37;;;;;;;6.07;3.22;;;20.10;99.90;;;;;;5005001;28;20087;-88
2023/09/29 10:32:11;;;;;;;8.75;3.38;;;20.10;99.90;;;;;;5009716;28;20084;-88
2023/09/29 10:34:37;;;;;;;7.53;3.10;;;20.00;99.90;;;;;;4979586;28;20489;-89
2023/09/29 10:37:03;;;;;;;8.43;2.70;;;;;;;;;;4990095;28;20046;-88
2023/09/29 10:39:35;;;;;;;9.43;3.00;;;20.00;99.90;;;;;;5007551;28;20473;-88
2023/09/29 10:42:15;;;;;;;7.60;3.00;;;19.90;99.90;;;;;;4999258;28;20058;-88
2023/09/29 10:44:52;;;;;;;6.53;3.13;;;19.90;99.90;;;;;;4972745;28;20061;-88
2023/09/29 10:47:36;;;;;;;9.25;3.35;;;19.90;99.90;;;;;;4968461;28;20140;-89
2023/09/29 10:50:07;;;;;;;7.38;2.80;;;19.80;99.90;;;;;;4957327;28;20053;-89
2023/09/29 10:52:33;;;;;;;7.45;3.35;;;;;;;;;;4990375;28;20045;-88
2023/09/29 10:54:59;;;;;;;6.68;2.88;;;;;;;;;;4989533;28;20129;-89
2023/09/29 10:57:32;;;;;;;5.38;2.45;;;19.90;99.90;;;;;;4992327;28;20153;-89
2023/09/29 10:59:59;;;;;;;6.20;2.95;;;19.80;99.90;;;;;;5010293;28;20052;-89
2023/09/29 11:02:36;;;;;;;11.75;4.18;;;19.70;99.90;;;;;;4986666;28;20053;-90
2023/09/29 11:05:09;;;;;;;8.57;3.45;;;19.80;99.90;;;;;;4974818;28;20042;-89
2023/09/29 11:07:50;;;;;;;6.78;3.13;;;19.70;99.90;;;;;;5001877;28;20489;-89
2023/09/29 11:10:17;;;;;;;7.10;3.47;;;19.70;99.90;;;;;;4987587;28;20553;-89
2023/09/29 11:12:47;;;;;;;6.95;3.20;;;19.70;99.90;;;;;;4991915;28;20054;-89
2023/09/29 11:15:14;;;;;;;5.75;3.90;;;19.70;99.90;;;;;;4974766;28;20152;-89
2023/09/29 11:17:48;;;;;;;10.30;3.63;;;19.70;99.90;;;;;;4974690;28;20054;-90
2023/09/29 11:20:25;;;;;;;10.15;4.32;;;19.70;99.90;;;;;;4975391;28;20037;-89
2023/09/29 11:23:06;;;;;;;7.82;4.05;;;19.60;99.90;;;;;;4977243;28;20042;-89
2023/09/29 11:25:32;;;;;;;8.68;4.05;;;;;;;;;;4980075;28;20045;-90
2023/09/29 11:27:58;;;;;;;7.93;3.80;;;;;;;;;;4992920;28;20100;-89
2023/09/29 11:30:27;;;;;;;12.40;4.60;;;;;;;;;;5009629;28;20042;-90
2023/09/29 11:32:53;;;;;;;12.07;4.18;;;19.70;99.90;;;;;;4993302;28;20045;-90
2023/09/29 11:35:22;;;;;;;10.60;4.93;;;;;;;;;;4968243;28;20069;-89
2023/09/29 11:37:48;;;;;;;9.57;4.85;;;;;;;;;;4989752;28;20068;-88
2023/09/29 11:40:16;;;;;;;8.05;4.32;;;19.90;99.90;;;;;;4977915;28;20134;-89
2023/09/29 11:42:44;;;;;;;10.85;4.55;;;;;;;;;;4976960;28;20045;-90
2023/09/29 11:45:10;;;;;;;7.65;4.68;;;20.10;99.90;;;;;;4989994;28;20110;-90
2023/09/29 11:47:41;;;;;;;10.73;5.07;;;20.20;99.90;;;;;;4962936;28;20073;-89
2023/09/29 11:50:09;;;;;;;6.45;4.03;;;20.20;99.90;;;;;;4997512;28;20401;-90
2023/09/29 11:52:39;;;;;;;9.85;4.47;;;20.10;99.90;;;;;;4984773;28;20124;-90
2023/09/29 11:55:11;;;;;;;10.95;4.65;;;20.20;99.90;;;;;;4978795;28;20046;-90
2023/09/29 11:57:37;;;;;;;10.40;4.38;;;;;;;;;;4975707;28;20042;-89
2023/09/29 12:00:08;;;;;;;8.60;4.65;;;20.20;99.90;;;;;;4994658;28;20053;-90
2023/09/29 12:02:35;;;;;;;7.00;3.83;;;20.30;99.90;;;;;;5000245;28;20846;-91
2023/09/29 12:05:02;;;;;;;9.65;4.68;;;20.10;99.90;;;;;;4975908;28;20045;-90
2023/09/29 12:07:28;;;;;;;7.47;4.13;;;;;;;;;;5001835;28;20038;-90
2023/09/29 12:09:55;;;;;;;8.15;4.47;;;;;;;;;;5005053;28;20106;-89
2023/09/29 12:12:22;;;;;;;7.68;5.63;;;19.70;99.90;;;;;;4981512;28;20037;-90
2023/09/29 12:14:48;;;;;;;7.85;4.72;;;;;;;;;;4985892;28;20412;-90
2023/09/29 12:17:14;;;;;;;7.53;5.07;;;;;;;;;;4970520;28;20517;-90
2023/09/29 12:19:40;;;;;;;11.20;4.93;;;19.50;99.90;;;;;;4998258;28;20054;-89
2023/09/29 12:22:06;;;;;;;11.40;6.22;;;;;;;;;;4992801;28;20046;-89
2023/09/29 12:24:32;;;;;;;9.57;4.95;;;;;;;;;;4994293;28;20045;-88
2023/09/29 12:26:58;;;;;;;5.22;1.40;;;19.50;99.90;;;;;;4979572;28;20056;-89
2023/09/29 12:29:25;;;;;;;4.40;0.93;;;;;;;;;;5008051;28;20444;-89
2023/09/29 12:31:51;;;;;;;2.22;0.70;;;;;;;;;;5004945;28;20049;-90
2023/09/29 12:34:17;;;;;;;2.25;0.68;;;;;;;;;;5003769;28;20038;-89
2023/09/29 12:36:46;;;;;;;1.63;0.60;;;18.90;99.90;;;;;;4981121;28;20045;-89
2023/09/29 12:39:12;;;;;;;1.13;0.45;;;;;;;;;;4970633;28;20042;-89
2023/09/29 12:41:40;;;;;;;1.80;0.50;;;;;;;;;;4977033;28;20042;-89
2023/09/29 12:44:06;;;;;;;2.63;0.70;;;18.60;99.90;;;;;;4978054;28;20050;-90
2023/09/29 12:46:35;;;;;;;1.50;0.40;;;;;;;;;;4992127;28;20042;-89
2023/09/29 12:49:07;;;;;;;2.90;0.93;;;18.70;99.90;;;;;;4992849;28;20053;-91
2023/09/29 12:51:32;;;;;;;2.03;0.50;;;18.60;99.90;;;;;;4982951;28;20045;-92
2023/09/29 12:54:02;;;;;;;1.33;0.50;;;;;;;;;;4996188;28;20420;-91
2023/09/29 12:56:30;;;;;;;2.17;0.40;;;;;;;;;;4989780;28;20073;-90
2023/09/29 12:58:56;;;;;;;4.25;0.40;;;;;;;;;;4987921;28;20068;-91
2023/09/29 13:01:23;;;;;;;2.42;0.50;;;18.50;99.90;;;;;;4991708;28;20069;-90
2023/09/29 13:03:49;;;;;;;2.65;0.55;;;;;;;;;;4977486;28;20056;-90
2023/09/29 13:06:15;;;;;;;1.63;0.40;;;;;;;;;;5004766;28;20045;-90
2023/09/29 13:08:42;;;;;;;1.38;0.40;;;;;;;;;;4984368;28;20533;-90
2023/09/29 13:11:15;;;;;;;3.22;0.30;;;18.70;99.90;;;;;;4975859;28;20559;-89
2023/09/29 13:13:41;;;;;;;3.22;0.40;;;;;;;;;;4988821;28;20053;-89
2023/09/29 13:16:09;;;;;;;3.05;0.32;;;;;;;;;;5000387;28;20045;-90
2023/09/29 13:18:35;;;;;;;1.45;0.35;;;;;;;;;;4988035;28;20050;-90
2023/09/29 13:21:01;;;;;;;2.03;0.30;;;;;;;;;;4975196;28;20050;-91
2023/09/29 13:23:27;;;;;;;3.42;0.60;;;;;;;;;;4996933;28;20540;-89
2023/09/29 13:25:53;;;;;;;3.70;0.57;;;;;;;;;;4975959;28;20049;-90
2023/09/29 13:28:19;;;;;;;4.13;0.60;;;;;;;;;;4973078;28;20485;-90
2023/09/29 13:30:45;;;;;;;3.65;0.50;;;;;;;;;;4972569;28;20042;-90
2023/09/29 13:33:11;;;;;;;5.05;1.20;;;18.50;99.90;;;;;;4974710;28;20080;-89
2023/09/29 13:35:37;;;;;;;4.28;0.60;;;;;;;;;;4987475;28;20068;-90
2023/09/29 13:38:03;;;;;;;1.63;0.55;;;;;;;;;;4987042;28;20072;-89
2023/09/29 13:40:30;;;;;;;2.22;0.43;;;;;;;;;;5006026;28;20768;-90
2023/09/29 13:42:56;;;;;;;2.38;0.52;;;;;;;;;;4981519;28;20049;-89
2023/09/29 13:45:22;;;;;;;2.25;0.38;;;18.40;99.90;;;;;;5000548;28;20145;-89
2023/09/29 13:47:48;;;;;;;1.63;0.60;;;;;;;;;;4980415;28;20053;-90
2023/09/29 13:50:14;;;;;;;2.00;0.70;;;;;;;;;;4980376;28;20038;-90
2023/09/29 13:52:40;;;;;;;1.92;0.52;;;;;;;;;;4993060;28;20049;-89